aviador You're here:

KCOU Decoded Metar

COLUMBIA in MO, USA
Report Time2017-08-22 21:54:00
UTC Time2017-08-22 22:27:33
Flight Rules vfr VFR
Wind340° at 09 kt
W.Decomp.*RWY 31: 8.0 kt HW 4.1 kt RCW
RWY 02: 6.6 kt HW 6.1 kt LCW
W.Rank340° ranks 22
Current wind is above 340° avg. (8.6)
Visibility9999 m
Phenomena:N/A
Clouds:Scattered 047 Hf
Expected CloudBase > 4,000 ft AGL from Temp-Dew spread
CeilingNone
Temp28°C (ISA +15)
Dew Point18°C (55% RH)
Heat Index28.9°C
AAT27.6°C
QNH1017 hPa
Density Alt2,730 ft
Elevation889 ft
Report Wrong Elevation
Raw Report
KCOU 222154Z 34009KT 10SM SCT047 28/18 A3004 RMK AO2 SLP163
T02780178=

Extra information for KCOU:More info

Metar Taf Metar & Taf Last 4 Metars F.Rules Stats Wind Profile Meteogram Temp Stats Airport Information Weather charts Add Link Nearby VenuesMetar ALERT Operation Metar Decoded Social comments

AIRNAV info for KCOU